Winnebago, MN (56098)

4:32 AM CDT on August 28, 2015 (GMT -0500)
Leading Edge Technologies | | Change Station
CLOSE
Current Station
Personal Weather Station
Location: Winnebago, MN
Elevation: 1119 ft
Nearby Weather Stations

Elev 1119 ft 43.76 °N, 94.17 °W | Updated 7 minutes ago

Overcast
Overcast
63.3 °F
Feels Like 63.3 °F
N
1.0
Wind Variable Wind from SW
Gusts 5.0 mph

Today
High -- | Low -- °F
--% Chance of Precip.
Yesterday
High -- | Low -- °F
Precip. -- in
6:35 AM 7:59 PM
Waxing Gibbous, 97% visible
Pressure 30.00 in
Visibility 10.0 miles
Clouds Few 3700 ft
Few 4600 ft
Overcast 7000 ft
Dew Point 62 °F
Humidity 95%
Rainfall 0.20 in
Snow Depth Not available.
UV 0 out of 12
Pollen 10.50 out of 12
Air Quality Not available.
Flu Activity Not available.
METAR KFRM 280915Z AUTO 15008KT 10SM FEW037 FEW046 OVC070 17/14 A3000 RMK AO1
Pressure 30.00 in
Visibility 10.0 miles
Clouds Few 3700 ft
Few 4600 ft
Overcast 7000 ft
Dew Point 62 °F
Humidity 95%
Rainfall 0.20 in
Snow Depth Not available.
UV 0 out of 12
Pollen 10.50 out of 12
Air Quality Not available.
Flu Activity Not available.
METAR KFRM 280915Z AUTO 15008KT 10SM FEW037 FEW046 OVC070 17/14 A3000 RMK AO1

10-Day Weather Forecast

×

Almanac

Astronomy

Aug. 28, 2015 Rise Set
Actual Time
Civil Twilight
Nautical Twilight
Astronomical Twilight
Moon
Length of Visible Light
Length of Day
Tomorrow will be .
, % of the Moon is Illuminated

Today's Extremes

State Highs State Lows

Community

WunderPhotos

Upload Photos

1,850,352 photos uploaded!

WunderBlogs® & News

Nearby

Air Quality

  Air Quality AQ Index Pollutant
Not available.

Snow Depth

Station Depth Elevation

Earthquake Activity

City Distance Mag. Time & Date
Minimum magnitude displayed is 2.5.

Coastal Water Temperatures

Place Temperature

Stations

Nearby Weather Stations

Station Location Temp. Windchill Dew Point Humidity Wind Precip. Elev Updated Type